Terminal Aerodrome Forecast
Issued by NWS

Home | Current Version | Previous Version | Text Only | Print | Product List | Glossary On
Versions: 1 2 3 4 5 6 7 8 9 10 11 12 13 14 15
143
FTUS42 KMHX 130729 AAA
TAFOAJ
TAF AMD
KOAJ 130729Z 1307/1406 30007KT P6SM SCT006 BKN070
      TEMPO 1307/1309 4SM BR
     FM130900 32007KT P6SM SKC
     FM131400 31010G20KT P6SM SKC
     FM132200 34005KT P6SM SKC
      AMD LTD TO CLD VIS AND WIND=

USA.gov is the U.S. government's official web portal to all federal, state and local government web resources and services.